createdAt,value
2023-03-22T00:10:57.014Z,519.00
2023-03-22T00:11:56.972Z,519.00
2023-03-22T00:12:56.911Z,519.00
2023-03-22T00:13:56.857Z,520.00
2023-03-22T00:14:56.813Z,516.00
2023-03-22T00:15:56.791Z,513.00
2023-03-22T00:16:56.737Z,514.00
2023-03-22T00:17:56.674Z,514.00
2023-03-22T00:18:56.630Z,515.00
2023-03-22T00:19:56.581Z,514.00
2023-03-22T00:20:56.547Z,512.00
2023-03-22T00:21:56.492Z,511.00
2023-03-22T00:22:56.431Z,516.00
2023-03-22T00:23:56.392Z,515.00
2023-03-22T00:24:56.339Z,516.00
2023-03-22T00:25:56.310Z,520.00
2023-03-22T00:26:56.252Z,521.00
2023-03-22T00:27:56.185Z,520.00
2023-03-22T00:28:56.143Z,521.00
2023-03-22T00:29:56.091Z,522.00
2023-03-22T00:30:56.057Z,520.00
2023-03-22T00:31:56.001Z,518.00
2023-03-22T00:32:55.952Z,519.00
2023-03-22T00:33:55.909Z,516.00
2023-03-22T00:34:55.861Z,515.00
2023-03-22T00:35:55.863Z,515.00
2023-03-22T00:36:55.759Z,516.00
2023-03-22T00:37:55.705Z,515.00
2023-03-22T00:38:55.687Z,514.00
2023-03-22T00:39:55.606Z,513.00
2023-03-22T00:40:55.547Z,512.00
2023-03-22T00:41:55.516Z,513.00
2023-03-22T00:42:55.442Z,512.00
2023-03-22T00:43:55.399Z,510.00
2023-03-22T00:44:55.334Z,510.00
2023-03-22T00:45:55.292Z,508.00
2023-03-22T00:46:55.238Z,507.00
2023-03-22T00:47:55.200Z,508.00
2023-03-22T00:48:55.138Z,508.00
2023-03-22T00:49:55.063Z,509.00
2023-03-22T00:50:55.009Z,510.00
2023-03-22T00:51:54.971Z,510.00
2023-03-22T00:52:54.907Z,510.00
2023-03-22T00:53:54.845Z,507.00
2023-03-22T00:54:54.808Z,507.00
2023-03-22T00:55:54.728Z,505.00
2023-03-22T00:56:54.696Z,505.00
2023-03-22T00:57:54.629Z,505.00
2023-03-22T00:58:54.578Z,507.00
2023-03-22T00:59:54.513Z,507.00
2023-03-22T01:00:54.495Z,506.00
2023-03-22T01:01:54.420Z,504.00
2023-03-22T01:02:54.354Z,502.00
2023-03-22T01:03:54.447Z,501.00
2023-03-22T01:04:54.235Z,502.00
2023-03-22T01:05:54.166Z,502.00
2023-03-22T01:06:54.111Z,504.00
2023-03-22T01:07:54.052Z,502.00
2023-03-22T01:08:53.994Z,502.00
2023-03-22T01:09:53.941Z,500.00
2023-03-22T01:10:53.897Z,500.00
2023-03-22T01:11:53.850Z,496.00
2023-03-22T01:12:53.774Z,498.00
2023-03-22T01:13:53.730Z,495.00
2023-03-22T01:14:53.664Z,492.00
2023-03-22T01:15:53.642Z,493.00
2023-03-22T01:16:53.624Z,492.00
2023-03-22T01:17:53.506Z,495.00
2023-03-22T01:18:53.464Z,493.00
2023-03-22T01:19:53.413Z,493.00
2023-03-22T01:20:53.353Z,493.00
2023-03-22T01:21:53.317Z,495.00
2023-03-22T01:22:53.257Z,498.00
2023-03-22T01:23:53.213Z,498.00
2023-03-22T01:24:53.162Z,499.00
2023-03-22T01:25:53.101Z,499.00
2023-03-22T01:26:53.059Z,498.00
2023-03-22T01:27:53.014Z,499.00
2023-03-22T01:28:52.957Z,501.00
2023-03-22T01:29:52.903Z,500.00
2023-03-22T01:30:52.895Z,497.00
2023-03-22T01:31:52.799Z,496.00
2023-03-22T01:32:52.778Z,494.00
2023-03-22T01:33:52.705Z,491.00
2023-03-22T01:34:52.661Z,495.00
2023-03-22T01:35:52.609Z,496.00
2023-03-22T01:36:52.559Z,497.00
2023-03-22T01:37:52.546Z,496.00
2023-03-22T01:38:52.471Z,493.00
2023-03-22T01:39:52.415Z,492.00
2023-03-22T01:40:52.359Z,490.00
2023-03-22T01:41:52.315Z,491.00
2023-03-22T01:42:52.265Z,493.00
2023-03-22T01:43:52.252Z,494.00
2023-03-22T01:44:52.164Z,491.00
2023-03-22T01:45:52.178Z,489.00
2023-03-22T01:46:52.076Z,489.00
2023-03-22T01:47:52.162Z,491.00
2023-03-22T01:48:52.001Z,490.00
2023-03-22T01:49:51.988Z,490.00
2023-03-22T01:50:51.906Z,490.00
2023-03-22T01:51:51.864Z,490.00
2023-03-22T01:52:51.822Z,489.00
2023-03-22T01:53:51.769Z,489.00
2023-03-22T01:54:51.741Z,488.00
2023-03-22T01:55:51.660Z,488.00
2023-03-22T01:56:51.619Z,487.00
2023-03-22T01:57:51.571Z,486.00
2023-03-22T01:58:51.510Z,484.00
2023-03-22T01:59:51.479Z,483.00
2023-03-22T02:00:51.422Z,483.00
2023-03-22T02:01:51.373Z,482.00
2023-03-22T02:02:51.340Z,482.00
2023-03-22T02:03:51.290Z,484.00
2023-03-22T02:04:51.214Z,484.00
2023-03-22T02:05:51.156Z,486.00
2023-03-22T02:06:51.111Z,485.00
2023-03-22T02:07:51.052Z,486.00
2023-03-22T02:08:51.005Z,486.00
2023-03-22T02:09:50.965Z,484.00
2023-03-22T02:10:50.925Z,483.00
2023-03-22T02:11:50.854Z,480.00
2023-03-22T02:12:50.947Z,483.00
2023-03-22T02:13:50.762Z,485.00
2023-03-22T02:14:50.695Z,484.00
2023-03-22T02:15:50.676Z,487.00
2023-03-22T02:16:50.600Z,488.00
2023-03-22T02:17:50.551Z,489.00
2023-03-22T02:18:50.513Z,490.00
2023-03-22T02:19:50.486Z,491.00
2023-03-22T02:20:50.420Z,490.00
2023-03-22T02:21:50.370Z,492.00
2023-03-22T02:22:50.309Z,491.00
2023-03-22T02:23:50.299Z,489.00
2023-03-22T02:24:50.219Z,489.00
2023-03-22T02:25:50.178Z,486.00
2023-03-22T02:26:50.128Z,487.00
2023-03-22T02:27:50.096Z,487.00
2023-03-22T02:28:50.030Z,488.00
2023-03-22T02:29:49.986Z,488.00
2023-03-22T02:30:50.024Z,488.00
2023-03-22T02:31:49.892Z,487.00
2023-03-22T02:32:49.846Z,487.00
2023-03-22T02:33:49.813Z,487.00
2023-03-22T02:34:49.751Z,485.00
2023-03-22T02:35:49.729Z,485.00
2023-03-22T02:36:49.664Z,486.00
2023-03-22T02:37:49.613Z,485.00
2023-03-22T02:38:49.549Z,486.00
2023-03-22T02:39:49.494Z,485.00
2023-03-22T02:40:49.454Z,485.00
2023-03-22T02:41:49.393Z,485.00
2023-03-22T02:42:49.357Z,486.00
2023-03-22T02:43:49.334Z,485.00
2023-03-22T02:44:49.258Z,483.00
2023-03-22T02:45:49.231Z,479.00
2023-03-22T02:46:49.172Z,477.00
2023-03-22T02:47:49.190Z,475.00
2023-03-22T02:48:49.099Z,473.00
2023-03-22T02:49:49.040Z,471.00
2023-03-22T02:50:49.014Z,473.00
2023-03-22T02:51:48.977Z,472.00
2023-03-22T02:52:48.953Z,473.00
2023-03-22T02:53:48.926Z,470.00
2023-03-22T02:54:48.894Z,469.00
2023-03-22T02:55:48.869Z,466.00
2023-03-22T02:56:48.835Z,463.00
2023-03-22T02:57:48.813Z,463.00
2023-03-22T02:58:48.791Z,463.00
2023-03-22T02:59:48.772Z,462.00
2023-03-22T03:00:48.754Z,463.00
2023-03-22T03:01:48.741Z,463.00
2023-03-22T03:02:48.692Z,461.00
2023-03-22T03:03:48.663Z,457.00
2023-03-22T03:04:48.651Z,456.00
2023-03-22T03:05:48.629Z,456.00
2023-03-22T03:06:48.593Z,455.00
2023-03-22T03:07:48.567Z,454.00
2023-03-22T03:08:48.517Z,451.00
2023-03-22T03:09:48.505Z,448.00
2023-03-22T03:10:48.470Z,450.00
2023-03-22T03:11:48.454Z,450.00
2023-03-22T03:12:48.422Z,452.00
2023-03-22T03:13:48.401Z,453.00
2023-03-22T03:14:48.405Z,455.00
2023-03-22T03:15:48.353Z,453.00
2023-03-22T03:16:48.317Z,453.00
2023-03-22T03:17:48.290Z,454.00
2023-03-22T03:18:48.268Z,456.00
2023-03-22T03:19:48.263Z,455.00
2023-03-22T03:20:48.226Z,455.00
2023-03-22T03:21:48.217Z,454.00
2023-03-22T03:22:48.184Z,454.00
2023-03-22T03:23:48.163Z,452.00
2023-03-22T03:24:48.150Z,453.00
2023-03-22T03:25:48.127Z,452.00
2023-03-22T03:26:48.110Z,451.00
2023-03-22T03:27:48.107Z,449.00
2023-03-22T03:28:48.064Z,448.00
2023-03-22T03:29:48.060Z,447.00
2023-03-22T03:30:48.046Z,448.00
2023-03-22T03:31:48.065Z,447.00
2023-03-22T03:32:47.997Z,448.00
2023-03-22T03:33:47.984Z,448.00
2023-03-22T03:34:47.993Z,452.00
2023-03-22T03:35:48.042Z,451.00
2023-03-22T03:36:47.939Z,451.00
2023-03-22T03:37:47.922Z,452.00
2023-03-22T03:38:47.894Z,452.00
2023-03-22T03:39:47.873Z,452.00
2023-03-22T03:40:47.882Z,453.00
2023-03-22T03:41:47.867Z,453.00
2023-03-22T03:42:47.827Z,452.00
2023-03-22T03:43:47.822Z,451.00
2023-03-22T03:44:47.791Z,449.00
2023-03-22T03:45:47.820Z,448.00
2023-03-22T03:46:47.762Z,448.00
2023-03-22T03:47:47.765Z,449.00
2023-03-22T03:48:47.730Z,447.00
2023-03-22T03:49:47.735Z,447.00
2023-03-22T03:50:47.697Z,446.00
2023-03-22T03:51:47.693Z,447.00
2023-03-22T03:52:47.659Z,446.00
2023-03-22T03:53:47.640Z,447.00
2023-03-22T03:54:47.628Z,447.00
2023-03-22T03:55:47.622Z,444.00
2023-03-22T03:56:47.589Z,444.00
2023-03-22T03:57:47.580Z,445.00
2023-03-22T03:58:47.563Z,446.00
2023-03-22T03:59:47.554Z,446.00
2023-03-22T04:00:47.533Z,445.00
2023-03-22T04:01:47.505Z,446.00
2023-03-22T04:02:47.501Z,446.00
2023-03-22T04:03:47.461Z,440.00
2023-03-22T04:04:47.493Z,440.00
2023-03-22T04:05:47.479Z,438.00
2023-03-22T04:06:47.414Z,439.00
2023-03-22T04:07:47.406Z,442.00
2023-03-22T04:08:47.393Z,443.00
2023-03-22T04:09:47.370Z,441.00
2023-03-22T04:10:47.373Z,438.00
2023-03-22T04:11:47.363Z,439.00
2023-03-22T04:12:47.351Z,438.00
2023-03-22T04:13:47.332Z,439.00
2023-03-22T04:14:47.311Z,442.00
2023-03-22T04:15:47.312Z,441.00
2023-03-22T04:16:47.401Z,443.00
2023-03-22T04:17:47.265Z,444.00
2023-03-22T04:18:47.264Z,444.00
2023-03-22T04:19:47.248Z,443.00
2023-03-22T04:20:47.237Z,444.00
2023-03-22T04:21:47.225Z,446.00
2023-03-22T04:22:47.216Z,445.00
2023-03-22T04:23:47.208Z,447.00
2023-03-22T04:24:47.187Z,446.00
2023-03-22T04:25:47.180Z,445.00
2023-03-22T04:26:47.151Z,446.00
2023-03-22T04:27:47.154Z,449.00
2023-03-22T04:28:47.137Z,450.00
2023-03-22T04:29:47.129Z,452.00
2023-03-22T04:30:47.148Z,451.00
2023-03-22T04:31:47.112Z,449.00
2023-03-22T04:32:47.102Z,447.00
2023-03-22T04:33:47.076Z,447.00
2023-03-22T04:34:47.062Z,446.00
2023-03-22T04:35:47.120Z,445.00
2023-03-22T04:36:47.044Z,444.00
2023-03-22T04:37:47.041Z,446.00
2023-03-22T04:38:47.032Z,446.00
2023-03-22T04:39:47.023Z,445.00
2023-03-22T04:40:47.019Z,443.00
2023-03-22T04:41:47.003Z,443.00
2023-03-22T04:42:46.996Z,445.00
2023-03-22T04:43:47.072Z,444.00
2023-03-22T04:44:46.975Z,444.00
2023-03-22T04:45:46.964Z,447.00
2023-03-22T04:46:47.060Z,449.00
2023-03-22T04:47:46.996Z,447.00
2023-03-22T04:48:46.940Z,449.00
2023-03-22T04:49:46.930Z,448.00
2023-03-22T04:50:46.938Z,448.00
2023-03-22T04:51:46.927Z,444.00
2023-03-22T04:52:46.903Z,442.00
2023-03-22T04:53:46.901Z,443.00
2023-03-22T04:54:46.900Z,443.00
2023-03-22T04:55:46.882Z,446.00
2023-03-22T04:56:46.891Z,445.00
2023-03-22T04:57:46.872Z,446.00
2023-03-22T04:58:46.857Z,445.00
2023-03-22T04:59:46.860Z,446.00
2023-03-22T05:00:46.866Z,447.00
2023-03-22T06:56:44.885Z,799.00
2023-03-22T06:59:44.770Z,891.00
2023-03-22T07:00:44.729Z,889.00
2023-03-22T07:01:44.750Z,885.00
2023-03-22T07:03:44.622Z,935.00
2023-03-22T07:04:44.629Z,936.00
2023-03-22T07:05:44.575Z,929.00
2023-03-22T07:06:44.524Z,929.00
2023-03-22T07:07:44.473Z,935.00
2023-03-22T07:08:44.515Z,959.00
2023-03-22T07:09:44.400Z,978.00
2023-03-22T07:10:44.413Z,1034.00
2023-03-22T07:12:44.336Z,1013.00
2023-03-22T07:13:44.259Z,1002.00
2023-03-22T07:14:44.220Z,1001.00
2023-03-22T07:15:44.196Z,1014.00
2023-03-22T07:16:44.141Z,1028.00
2023-03-22T07:17:44.128Z,1015.00
2023-03-22T07:18:44.096Z,1023.00
2023-03-22T07:19:44.022Z,1036.00
2023-03-22T07:21:43.957Z,1042.00
2023-03-22T07:23:43.889Z,1052.00
2023-03-22T07:24:55.541Z,1050.00
2023-03-22T07:25:44.809Z,1049.00
2023-03-22T07:26:43.762Z,1049.00
2023-03-22T07:27:43.726Z,1083.00
2023-03-22T07:29:43.637Z,1162.00
2023-03-22T07:30:43.601Z,1146.00
2023-03-22T07:31:43.573Z,1120.00
2023-03-22T07:32:43.524Z,1119.00
2023-03-22T07:33:43.489Z,1128.00
2023-03-22T07:34:43.436Z,1127.00
2023-03-22T07:35:43.387Z,1127.00
2023-03-22T07:36:43.331Z,1127.00
2023-03-22T07:37:43.500Z,1131.00
2023-03-22T07:38:43.226Z,1136.00
2023-03-22T07:39:43.182Z,1145.00
2023-03-22T07:40:43.139Z,1151.00
2023-03-22T07:41:43.085Z,1154.00
2023-03-22T07:42:43.041Z,998.00
2023-03-22T07:43:54.053Z,982.00
2023-03-22T07:45:42.900Z,1156.00
2023-03-22T07:46:42.917Z,1124.00
2023-03-22T07:47:42.902Z,1013.00
2023-03-22T07:48:42.804Z,1113.00
2023-03-22T07:49:42.770Z,1266.00
2023-03-22T07:50:42.718Z,1162.00
2023-03-22T07:51:42.775Z,1121.00
2023-03-22T07:52:42.615Z,1108.00
2023-03-22T07:53:42.569Z,1104.00
2023-03-22T07:54:42.534Z,1096.00
2023-03-22T07:55:42.499Z,1091.00
2023-03-22T07:56:42.463Z,1083.00
2023-03-22T07:57:42.420Z,1084.00
2023-03-22T07:58:42.395Z,1085.00
2023-03-22T07:59:42.320Z,1091.00
2023-03-22T08:00:42.282Z,1092.00
2023-03-22T08:01:42.302Z,1097.00
2023-03-22T08:02:42.225Z,1100.00
2023-03-22T08:03:42.145Z,1100.00
2023-03-22T08:04:42.215Z,1175.00
2023-03-22T08:05:42.701Z,1168.00
2023-03-22T08:06:42.197Z,1152.00
2023-03-22T08:07:42.042Z,1143.00
2023-03-22T08:08:41.916Z,1130.00
2023-03-22T08:09:41.885Z,1126.00
2023-03-22T08:10:41.953Z,1132.00
2023-03-22T08:11:41.789Z,1132.00
2023-03-22T08:12:41.734Z,1139.00
2023-03-22T08:13:41.703Z,1128.00
2023-03-22T08:14:41.656Z,1128.00
2023-03-22T08:15:41.689Z,1131.00
2023-03-22T08:16:41.645Z,1279.00
2023-03-22T08:17:41.519Z,1193.00
2023-03-22T08:18:43.602Z,1140.00
2023-03-22T08:19:41.410Z,1158.00
2023-03-22T08:20:41.915Z,1153.00
2023-03-22T08:21:41.289Z,1148.00
2023-03-22T08:22:41.241Z,1123.00
2023-03-22T08:23:42.435Z,1122.00
2023-03-22T08:24:41.196Z,1120.00
2023-03-22T08:25:41.110Z,1115.00
2023-03-22T08:26:41.064Z,1111.00
2023-03-22T08:27:41.031Z,1114.00
2023-03-22T08:28:40.963Z,1117.00
2023-03-22T08:29:40.919Z,1110.00
2023-03-22T08:30:41.169Z,1106.00
2023-03-22T08:31:40.873Z,1108.00
2023-03-22T08:32:40.768Z,1111.00
2023-03-22T08:33:40.715Z,1109.00
2023-03-22T08:34:40.678Z,1113.00
2023-03-22T08:35:40.962Z,1113.00
2023-03-22T08:36:40.563Z,1121.00
2023-03-22T08:37:40.523Z,1111.00
2023-03-22T08:38:40.470Z,1066.00
2023-03-22T08:39:40.438Z,963.00
2023-03-22T08:40:40.425Z,978.00
2023-03-22T08:41:40.371Z,791.00
2023-03-22T08:42:40.333Z,760.00
2023-03-22T08:43:40.304Z,759.00
2023-03-22T08:44:40.310Z,737.00
2023-03-22T08:45:40.616Z,663.00
2023-03-22T08:46:40.211Z,635.00
2023-03-22T08:47:40.175Z,628.00
2023-03-22T08:48:40.161Z,620.00
2023-03-22T08:49:40.129Z,604.00
2023-03-22T08:50:40.100Z,583.00
2023-03-22T08:51:40.057Z,574.00
2023-03-22T08:52:40.056Z,564.00
2023-03-22T08:53:40.005Z,546.00
2023-03-22T08:54:39.983Z,533.00
2023-03-22T08:55:40.266Z,528.00
2023-03-22T08:56:39.923Z,527.00
2023-03-22T08:57:39.885Z,524.00
2023-03-22T08:58:39.871Z,519.00
2023-03-22T08:59:39.848Z,511.00
2023-03-22T09:00:48.542Z,509.00
2023-03-22T09:01:40.893Z,504.00
2023-03-22T09:02:39.762Z,498.00
2023-03-22T09:03:39.757Z,489.00
2023-03-22T09:04:39.770Z,489.00
2023-03-22T09:05:39.822Z,486.00
2023-03-22T09:06:39.659Z,481.00
2023-03-22T09:07:39.664Z,473.00
2023-03-22T09:08:39.630Z,470.00
2023-03-22T09:09:39.605Z,464.00
2023-03-22T09:10:39.579Z,455.00
2023-03-22T09:11:39.567Z,449.00
2023-03-22T09:12:39.525Z,447.00
2023-03-22T09:13:39.515Z,448.00
2023-03-22T09:14:39.476Z,446.00
2023-03-22T09:15:39.903Z,444.00
2023-03-22T09:16:39.527Z,445.00
2023-03-22T09:17:39.380Z,447.00
2023-03-22T09:18:39.424Z,445.00
2023-03-22T09:19:39.333Z,440.00
2023-03-22T09:20:39.742Z,436.00
2023-03-22T09:21:39.302Z,435.00
2023-03-22T09:22:39.315Z,438.00
2023-03-22T09:23:39.270Z,437.00
2023-03-22T09:24:39.258Z,461.00
2023-03-22T09:25:39.566Z,417.00
2023-03-22T09:26:39.212Z,423.00
2023-03-22T09:27:39.266Z,426.00
2023-03-22T09:28:39.213Z,427.00
2023-03-22T09:29:39.155Z,429.00
2023-03-22T09:30:39.489Z,502.00
2023-03-22T09:31:39.153Z,529.00
2023-03-22T09:32:39.105Z,501.00
2023-03-22T09:33:39.111Z,479.00
2023-03-22T09:34:39.076Z,475.00
2023-03-22T09:35:39.551Z,466.00
2023-03-22T09:36:39.059Z,463.00
2023-03-22T09:37:39.027Z,459.00
2023-03-22T09:38:39.022Z,456.00
2023-03-22T09:39:39.005Z,454.00
2023-03-22T09:40:38.977Z,451.00
2023-03-22T09:41:39.019Z,449.00
2023-03-22T09:42:38.976Z,448.00
2023-03-22T09:44:38.897Z,445.00
2023-03-22T09:45:39.300Z,444.00
2023-03-22T09:48:38.829Z,535.00
2023-03-22T09:49:52.718Z,546.00
2023-03-22T09:50:39.741Z,558.00
2023-03-22T09:52:38.695Z,746.00
2023-03-22T09:53:38.662Z,679.00
2023-03-22T09:54:38.685Z,750.00
2023-03-22T09:55:38.818Z,729.00
2023-03-22T09:56:38.531Z,751.00
2023-03-22T09:57:39.066Z,724.00
2023-03-22T09:58:38.520Z,713.00
2023-03-22T09:59:38.432Z,714.00
2023-03-22T10:00:38.610Z,741.00
2023-03-22T10:01:38.763Z,765.00
2023-03-22T10:02:38.326Z,786.00
2023-03-22T10:03:38.269Z,784.00
2023-03-22T10:04:38.238Z,780.00
2023-03-22T10:05:38.397Z,770.00
2023-03-22T10:06:38.165Z,772.00
2023-03-22T10:07:38.077Z,767.00
2023-03-22T10:08:38.024Z,770.00
2023-03-22T10:09:37.984Z,767.00
2023-03-22T10:10:37.937Z,769.00
2023-03-22T10:11:37.887Z,772.00
2023-03-22T10:12:37.849Z,781.00
2023-03-22T10:13:37.786Z,800.00
2023-03-22T10:14:37.773Z,845.00
2023-03-22T10:15:37.883Z,829.00
2023-03-22T10:16:37.982Z,845.00
2023-03-22T10:17:37.601Z,849.00
2023-03-22T10:18:37.556Z,898.00
2023-03-22T10:19:37.522Z,902.00
2023-03-22T10:20:37.468Z,834.00
2023-03-22T10:21:37.409Z,839.00
2023-03-22T10:22:37.462Z,859.00
2023-03-22T10:23:37.327Z,851.00
2023-03-22T10:24:37.246Z,849.00
2023-03-22T10:25:37.209Z,843.00
2023-03-22T10:26:37.190Z,836.00
2023-03-22T10:27:37.091Z,830.00
2023-03-22T10:28:37.027Z,839.00
2023-03-22T10:29:36.980Z,842.00
2023-03-22T10:30:36.916Z,846.00
2023-03-22T10:31:36.889Z,831.00
2023-03-22T10:32:45.235Z,825.00
2023-03-22T10:33:37.775Z,831.00
2023-03-22T10:34:36.692Z,930.00
2023-03-22T10:35:36.678Z,850.00
2023-03-22T10:36:36.619Z,842.00
2023-03-22T10:37:36.523Z,859.00
2023-03-22T10:38:36.456Z,832.00
2023-03-22T10:39:38.430Z,832.00
2023-03-22T10:40:36.385Z,831.00
2023-03-22T10:41:36.336Z,843.00
2023-03-22T10:42:36.277Z,851.00
2023-03-22T10:43:36.217Z,865.00
2023-03-22T10:44:36.144Z,888.00
2023-03-22T10:45:36.107Z,939.00
2023-03-22T10:46:36.143Z,839.00
2023-03-22T10:47:36.046Z,865.00
2023-03-22T10:48:36.089Z,859.00
2023-03-22T10:49:35.903Z,857.00
2023-03-22T10:50:35.892Z,839.00
2023-03-22T10:51:35.831Z,893.00
2023-03-22T10:52:35.724Z,884.00
2023-03-22T10:53:35.667Z,868.00
2023-03-22T10:54:35.594Z,886.00
2023-03-22T10:55:35.573Z,904.00
2023-03-22T10:56:35.513Z,909.00
2023-03-22T10:57:35.450Z,915.00
2023-03-22T10:58:35.435Z,933.00
2023-03-22T10:59:35.364Z,918.00
2023-03-22T11:00:38.332Z,923.00
2023-03-22T11:01:36.291Z,958.00
2023-03-22T11:02:35.345Z,961.00
2023-03-22T11:03:35.041Z,957.00
2023-03-22T11:04:35.045Z,947.00
2023-03-22T11:05:34.930Z,947.00
2023-03-22T11:06:34.867Z,1085.00
2023-03-22T11:07:34.817Z,1054.00
2023-03-22T11:08:34.770Z,1073.00
2023-03-22T11:09:34.791Z,1046.00
2023-03-22T11:10:34.706Z,1049.00
2023-03-22T11:11:34.601Z,967.00
2023-03-22T11:12:34.564Z,896.00
2023-03-22T11:13:34.501Z,882.00
2023-03-22T11:14:34.425Z,867.00
2023-03-22T11:15:34.373Z,855.00
2023-03-22T11:16:34.352Z,847.00
2023-03-22T11:17:34.260Z,769.00
2023-03-22T11:18:34.188Z,757.00
2023-03-22T11:19:34.143Z,757.00
2023-03-22T11:20:34.107Z,741.00
2023-03-22T11:21:34.032Z,739.00
2023-03-22T11:22:33.972Z,734.00
2023-03-22T11:23:33.937Z,682.00
2023-03-22T11:24:33.867Z,675.00
2023-03-22T11:25:33.815Z,666.00
2023-03-22T11:26:34.716Z,652.00
2023-03-22T11:27:33.724Z,643.00
2023-03-22T11:28:33.656Z,637.00
2023-03-22T11:29:33.632Z,628.00
2023-03-22T11:30:33.581Z,617.00
2023-03-22T11:31:33.557Z,603.00
2023-03-22T11:32:33.522Z,599.00
2023-03-22T11:33:33.407Z,599.00
2023-03-22T11:34:33.338Z,598.00
2023-03-22T11:35:33.370Z,592.00
2023-03-22T11:36:33.255Z,588.00
2023-03-22T11:37:33.188Z,580.00
2023-03-22T11:38:33.120Z,568.00
2023-03-22T11:39:33.121Z,563.00
2023-03-22T11:40:33.024Z,559.00
2023-03-22T11:41:32.961Z,558.00
2023-03-22T11:42:32.914Z,553.00
2023-03-22T11:43:32.859Z,543.00
2023-03-22T11:44:32.804Z,535.00
2023-03-22T11:45:32.762Z,531.00
2023-03-22T11:46:32.811Z,526.00
2023-03-22T11:47:32.673Z,508.00
2023-03-22T11:48:32.726Z,507.00
2023-03-22T11:49:32.577Z,508.00
2023-03-22T11:50:32.475Z,502.00
2023-03-22T11:51:32.465Z,500.00
2023-03-22T11:52:32.408Z,501.00
2023-03-22T11:53:32.330Z,500.00
2023-03-22T11:54:32.290Z,495.00
2023-03-22T11:55:32.232Z,492.00
2023-03-22T11:56:32.147Z,492.00
2023-03-22T11:57:32.096Z,489.00
2023-03-22T11:58:32.047Z,489.00
2023-03-22T11:59:31.990Z,486.00
2023-03-22T12:00:31.940Z,483.00
2023-03-22T12:01:31.877Z,481.00
2023-03-22T12:02:31.993Z,477.00
2023-03-22T12:03:32.020Z,473.00
2023-03-22T12:04:31.740Z,475.00
2023-03-22T12:05:31.648Z,474.00
2023-03-22T12:06:31.631Z,470.00
2023-03-22T12:07:31.528Z,467.00
2023-03-22T12:08:31.478Z,468.00
2023-03-22T12:09:31.444Z,469.00
2023-03-22T12:10:31.378Z,465.00
2023-03-22T12:11:31.303Z,461.00
2023-03-22T12:12:31.251Z,461.00
2023-03-22T12:13:31.222Z,461.00
2023-03-22T12:14:31.143Z,458.00
2023-03-22T12:15:31.105Z,455.00
2023-03-22T12:16:31.073Z,453.00
2023-03-22T12:17:31.025Z,451.00
2023-03-22T12:18:30.942Z,450.00
2023-03-22T12:19:30.861Z,447.00
2023-03-22T12:20:30.795Z,447.00
2023-03-22T12:21:30.745Z,447.00
2023-03-22T12:22:30.706Z,446.00
2023-03-22T12:23:30.721Z,445.00
2023-03-22T12:24:30.569Z,444.00
2023-03-22T12:25:30.510Z,440.00
2023-03-22T12:26:30.461Z,440.00
2023-03-22T12:27:30.402Z,440.00
2023-03-22T12:28:30.384Z,439.00
2023-03-22T12:29:30.266Z,441.00
2023-03-22T12:30:30.199Z,440.00
2023-03-22T12:31:30.217Z,437.00
2023-03-22T12:32:30.113Z,438.00
2023-03-22T12:33:30.063Z,437.00
2023-03-22T12:34:29.966Z,437.00
2023-03-22T12:35:29.894Z,434.00
2023-03-22T12:36:29.867Z,437.00
2023-03-22T12:37:31.403Z,436.00
2023-03-22T12:38:29.723Z,438.00
2023-03-22T12:39:29.658Z,437.00
2023-03-22T12:40:29.614Z,435.00
2023-03-22T12:41:29.544Z,435.00
2023-03-22T12:42:30.788Z,435.00
2023-03-22T12:43:29.451Z,436.00
2023-03-22T12:44:29.372Z,436.00
2023-03-22T12:45:29.317Z,435.00
2023-03-22T12:46:29.256Z,441.00
2023-03-22T12:47:29.192Z,442.00
2023-03-22T12:48:29.223Z,446.00
2023-03-22T12:49:29.204Z,446.00
2023-03-22T12:50:28.997Z,450.00
2023-03-22T12:51:28.951Z,453.00
2023-03-22T12:52:32.248Z,453.00
2023-03-22T12:53:29.845Z,456.00
2023-03-22T12:54:28.751Z,457.00
2023-03-22T12:55:28.693Z,460.00
2023-03-22T12:56:28.625Z,459.00
2023-03-22T12:57:28.578Z,461.00
2023-03-22T12:58:28.501Z,462.00
2023-03-22T12:59:28.482Z,467.00
2023-03-22T13:00:28.409Z,467.00
2023-03-22T13:01:28.360Z,471.00
2023-03-22T13:02:28.327Z,470.00
2023-03-22T13:03:28.459Z,514.00
2023-03-22T13:04:28.176Z,495.00
2023-03-22T13:05:28.130Z,490.00
2023-03-22T13:06:28.049Z,486.00
2023-03-22T13:07:27.971Z,487.00
2023-03-22T13:08:27.902Z,489.00
2023-03-22T13:09:27.855Z,491.00
2023-03-22T13:10:27.794Z,491.00
2023-03-22T13:11:27.719Z,490.00
2023-03-22T13:12:27.681Z,495.00
2023-03-22T13:13:27.597Z,496.00
2023-03-22T13:14:27.568Z,496.00
2023-03-22T13:15:34.772Z,497.00
2023-03-22T13:16:28.476Z,500.00
2023-03-22T13:17:27.409Z,498.00
2023-03-22T13:18:27.304Z,501.00
2023-03-22T13:19:27.212Z,503.00
2023-03-22T13:20:27.165Z,504.00
2023-03-22T13:21:27.098Z,504.00
2023-03-22T13:22:27.032Z,505.00
2023-03-22T13:23:26.964Z,504.00
2023-03-22T13:24:26.920Z,505.00
2023-03-22T13:25:26.814Z,503.00
2023-03-22T13:26:26.768Z,507.00
2023-03-22T13:27:26.712Z,505.00
2023-03-22T13:28:26.654Z,505.00
2023-03-22T13:29:26.587Z,504.00
2023-03-22T13:30:26.586Z,504.00
2023-03-22T13:31:26.459Z,503.00
2023-03-22T13:32:26.415Z,504.00
2023-03-22T13:33:26.303Z,503.00
2023-03-22T13:34:26.240Z,502.00
2023-03-22T13:35:26.244Z,502.00
2023-03-22T13:36:26.119Z,507.00
2023-03-22T13:37:26.053Z,506.00
2023-03-22T13:38:25.971Z,505.00
2023-03-22T13:39:26.024Z,505.00
2023-03-22T13:40:25.878Z,506.00
2023-03-22T13:41:25.775Z,507.00
2023-03-22T13:42:25.719Z,510.00
2023-03-22T13:43:25.715Z,511.00
2023-03-22T13:44:25.592Z,510.00
2023-03-22T13:45:25.679Z,512.00
2023-03-22T13:46:25.540Z,513.00
2023-03-22T13:47:25.411Z,513.00
2023-03-22T13:48:25.429Z,515.00
2023-03-22T13:49:25.254Z,515.00
2023-03-22T13:50:25.183Z,517.00
2023-03-22T13:51:25.101Z,516.00
2023-03-22T13:52:25.035Z,519.00
2023-03-22T13:53:24.988Z,519.00
2023-03-22T13:54:24.913Z,516.00
2023-03-22T13:55:24.858Z,514.00
2023-03-22T13:56:24.771Z,516.00
2023-03-22T13:57:24.702Z,518.00
2023-03-22T13:58:24.640Z,519.00
2023-03-22T13:59:24.584Z,520.00
2023-03-22T14:00:24.498Z,519.00
2023-03-22T14:01:24.471Z,519.00
2023-03-22T14:02:24.576Z,516.00
2023-03-22T14:03:24.550Z,520.00
2023-03-22T14:04:24.252Z,519.00
2023-03-22T14:05:24.175Z,521.00
2023-03-22T14:06:24.113Z,521.00
2023-03-22T14:07:24.068Z,520.00
2023-03-22T14:08:24.002Z,519.00
2023-03-22T14:09:23.909Z,520.00
2023-03-22T14:10:23.851Z,521.00
2023-03-22T14:11:23.763Z,523.00
2023-03-22T14:12:23.697Z,526.00
2023-03-22T14:13:23.629Z,526.00
2023-03-22T14:14:23.571Z,525.00
2023-03-22T14:15:23.481Z,526.00
2023-03-22T14:16:23.445Z,526.00
2023-03-22T14:17:23.350Z,525.00
2023-03-22T14:18:23.282Z,525.00
2023-03-22T14:19:23.237Z,521.00
2023-03-22T14:20:23.159Z,519.00
2023-03-22T14:21:23.069Z,519.00
2023-03-22T14:46:12.751Z,530.00
2023-03-22T14:47:12.738Z,524.00
2023-03-22T14:48:12.691Z,524.00
2023-03-22T14:52:12.594Z,528.00
2023-03-22T14:53:12.578Z,527.00
2023-03-22T14:54:12.580Z,525.00
2023-03-22T14:58:00.492Z,517.00
2023-03-22T15:00:00.485Z,519.00
2023-03-22T15:01:00.477Z,517.00
2023-03-22T15:02:00.476Z,518.00
2023-03-22T15:03:00.450Z,518.00
2023-03-22T15:07:48.369Z,530.00
2023-03-22T15:08:48.330Z,529.00
2023-03-22T15:10:48.256Z,529.00
2023-03-22T15:11:48.221Z,528.00
2023-03-22T15:12:48.191Z,526.00
2023-03-22T15:13:48.144Z,527.00
2023-03-22T15:17:36.037Z,517.00
2023-03-22T15:19:35.977Z,517.00
2023-03-22T15:21:35.891Z,518.00
2023-03-22T15:22:35.849Z,515.00